createdAt,value
2023-05-04T00:04:31.707Z,13.75
2023-05-04T00:09:31.113Z,13.87
2023-05-04T00:14:28.485Z,14.21
2023-05-04T00:19:25.380Z,14.18
2023-05-04T00:24:22.239Z,14.24
2023-05-04T00:29:19.744Z,14.25
2023-05-04T00:34:17.881Z,14.22
2023-05-04T00:39:15.577Z,13.80
2023-05-04T00:44:12.638Z,14.11
2023-05-04T00:49:10.370Z,13.81
2023-05-04T00:54:07.407Z,13.91
2023-05-04T00:59:04.649Z,13.54
2023-05-04T01:04:03.741Z,13.24
2023-05-04T01:09:07.608Z,13.31
2023-05-04T01:14:06.446Z,13.51
2023-05-04T01:19:06.080Z,13.14
2023-05-04T01:24:05.429Z,13.21
2023-05-04T01:29:11.886Z,13.55
2023-05-04T01:34:10.565Z,12.99
2023-05-04T01:39:09.812Z,13.61
2023-05-04T01:44:08.669Z,13.59
2023-05-04T01:49:06.494Z,13.35
2023-05-04T01:54:03.865Z,13.14
2023-05-04T01:59:04.087Z,13.25
2023-05-04T02:04:01.051Z,13.15
2023-05-04T02:08:58.153Z,12.87
2023-05-04T02:13:55.198Z,13.19
2023-05-04T02:18:53.375Z,12.74
2023-05-04T02:23:50.345Z,12.76
2023-05-04T02:28:47.502Z,12.98
2023-05-04T02:33:44.615Z,12.95
2023-05-04T02:38:42.670Z,13.09
2023-05-04T02:43:45.466Z,12.70
2023-05-04T02:48:42.844Z,12.78
2023-05-04T02:53:39.893Z,12.87
2023-05-04T02:58:38.382Z,13.08
2023-05-04T03:03:35.354Z,12.77
2023-05-04T03:08:32.239Z,12.86
2023-05-04T03:13:29.229Z,12.93
2023-05-04T03:18:27.311Z,12.71
2023-05-04T03:23:25.577Z,12.66
2023-05-04T03:28:23.502Z,12.38
2023-05-04T03:33:20.809Z,12.46
2023-05-04T03:38:19.135Z,12.53
2023-05-04T03:43:16.540Z,12.60
2023-05-04T03:48:14.429Z,12.73
2023-05-04T03:53:11.480Z,12.76
2023-05-04T03:58:10.570Z,12.49
2023-05-04T04:03:07.774Z,12.46
2023-05-04T04:08:06.520Z,12.53
2023-05-04T04:13:03.535Z,12.43
2023-05-04T04:18:01.208Z,12.68
2023-05-04T04:22:58.049Z,12.46
2023-05-04T04:28:00.624Z,12.50
2023-05-04T04:32:58.678Z,12.48
2023-05-04T04:37:57.160Z,13.01
2023-05-04T04:42:53.900Z,12.90
2023-05-04T04:47:51.706Z,12.52
2023-05-04T04:52:50.394Z,12.73
2023-05-04T04:57:48.142Z,12.80
2023-05-04T05:02:45.643Z,12.54
2023-05-04T05:07:45.013Z,12.68
2023-05-04T05:12:46.867Z,12.70
2023-05-04T05:17:47.823Z,12.36
2023-05-04T05:22:45.374Z,12.80
2023-05-04T05:27:42.151Z,12.19
2023-05-04T05:32:39.150Z,12.67
2023-05-04T05:37:37.159Z,12.26
2023-05-04T05:42:43.491Z,12.55
2023-05-04T05:47:40.449Z,12.36
2023-05-04T05:52:37.982Z,12.71
2023-05-04T05:57:37.370Z,12.66
2023-05-04T06:02:34.769Z,12.43
2023-05-04T06:07:32.335Z,12.66
2023-05-04T06:12:29.876Z,12.34
2023-05-04T06:17:27.379Z,12.75
2023-05-04T06:22:30.828Z,12.72
2023-05-04T06:27:29.767Z,12.70
2023-05-04T06:32:28.480Z,12.40
2023-05-04T06:37:27.301Z,12.47
2023-05-04T06:42:24.312Z,12.68
2023-05-04T06:47:23.676Z,12.77
2023-05-04T06:52:23.047Z,12.89
2023-05-04T06:57:20.456Z,12.95
2023-05-04T07:02:17.473Z,13.03
2023-05-04T07:07:14.345Z,12.66
2023-05-04T07:12:17.703Z,12.91
2023-05-04T07:17:14.545Z,13.09
2023-05-04T07:22:11.409Z,12.96
2023-05-04T07:27:08.329Z,13.32
2023-05-04T07:32:06.184Z,13.25
2023-05-04T07:37:04.210Z,13.41
2023-05-04T07:42:02.795Z,13.35
2023-05-04T07:47:01.239Z,14.04
2023-05-04T07:52:18.168Z,14.14
2023-05-04T07:57:17.346Z,14.24
2023-05-04T08:02:16.776Z,14.00
2023-05-04T08:07:18.703Z,14.33
2023-05-04T08:12:17.062Z,14.07
2023-05-04T08:17:21.010Z,14.28
2023-05-04T08:22:19.241Z,14.84
2023-05-04T08:27:17.070Z,14.87
2023-05-04T08:32:14.362Z,14.92
2023-05-04T08:37:12.925Z,15.02
2023-05-04T08:42:13.051Z,15.18
2023-05-04T08:47:11.807Z,16.00
2023-05-04T08:52:16.948Z,16.69
2023-05-04T08:57:17.858Z,17.78
2023-05-04T09:02:22.907Z,18.06
2023-05-04T09:07:22.373Z,18.63
2023-05-04T09:12:22.606Z,19.10
2023-05-04T09:17:25.496Z,18.81
2023-05-04T09:22:25.161Z,18.28
2023-05-04T09:27:25.288Z,18.08
2023-05-04T09:32:24.584Z,17.78
2023-05-04T09:37:26.763Z,18.30
2023-05-04T09:42:25.112Z,19.24
2023-05-04T09:47:26.023Z,20.15
2023-05-04T09:52:24.148Z,19.75
2023-05-04T09:57:23.620Z,19.27
2023-05-04T10:02:23.385Z,18.73
2023-05-04T10:07:23.109Z,18.45
2023-05-04T10:12:20.066Z,18.14
2023-05-04T10:17:32.255Z,18.36
2023-05-04T10:22:44.081Z,18.23
2023-05-04T10:27:51.554Z,18.28
2023-05-04T10:32:55.159Z,18.43
2023-05-04T10:37:54.272Z,18.55
2023-05-04T10:42:51.282Z,18.73
2023-05-04T10:47:57.542Z,19.09
2023-05-04T10:52:56.769Z,19.20
2023-05-04T10:57:57.403Z,19.13
2023-05-04T11:03:02.910Z,18.99
2023-05-04T11:08:00.666Z,19.11
2023-05-04T11:13:05.410Z,18.64
2023-05-04T11:18:03.695Z,18.72
2023-05-04T11:23:02.103Z,19.17
2023-05-04T11:28:00.279Z,19.22
2023-05-04T11:32:59.629Z,19.54
2023-05-04T11:38:02.578Z,19.36
2023-05-04T11:43:01.209Z,19.00
2023-05-04T11:48:02.555Z,18.84
2023-05-04T11:53:08.363Z,18.94
2023-05-04T11:58:08.277Z,18.60
2023-05-04T12:03:06.449Z,18.80
2023-05-04T12:08:06.707Z,19.10
2023-05-04T12:13:16.593Z,19.20
2023-05-04T12:18:29.356Z,19.30
2023-05-04T12:23:27.464Z,18.93
2023-05-04T12:28:30.267Z,19.09
2023-05-04T12:33:27.089Z,19.28
2023-05-04T12:38:25.134Z,19.40
2023-05-04T12:43:28.388Z,19.09
2023-05-04T12:48:27.753Z,19.91
2023-05-04T12:53:29.433Z,19.95
2023-05-04T12:58:28.368Z,19.95
2023-05-04T13:03:26.489Z,19.96
2023-05-04T13:08:23.363Z,19.54
2023-05-04T13:13:25.635Z,19.57
2023-05-04T13:18:29.023Z,19.41
2023-05-04T13:23:26.854Z,19.02
2023-05-04T13:28:24.607Z,19.12
2023-05-04T13:38:26.476Z,18.99
2023-05-04T13:43:24.816Z,18.92
2023-05-04T13:48:22.350Z,18.70
2023-05-04T13:53:21.810Z,18.28
2023-05-04T13:58:22.070Z,18.01
2023-05-04T14:03:19.263Z,17.85
2023-05-04T14:08:16.520Z,18.10
2023-05-04T14:13:14.137Z,18.11
2023-05-04T14:18:14.966Z,18.14
2023-05-04T14:23:14.373Z,18.36
2023-05-04T14:28:11.267Z,18.17
2023-05-04T14:33:08.216Z,18.33
2023-05-04T14:38:10.890Z,17.91
2023-05-04T14:43:14.489Z,17.95
2023-05-04T14:48:11.545Z,18.25
2023-05-04T14:53:11.041Z,18.32
2023-05-04T14:58:09.117Z,18.54
2023-05-04T15:03:06.523Z,18.21
2023-05-04T15:08:03.621Z,17.53
2023-05-04T15:13:02.697Z,17.91
2023-05-04T15:17:59.788Z,17.72
2023-05-04T15:22:59.461Z,17.52
2023-05-04T15:27:56.303Z,17.50
2023-05-04T15:32:54.590Z,17.00
2023-05-04T15:38:00.924Z,17.38
2023-05-04T15:42:57.794Z,17.37
2023-05-04T15:47:57.834Z,17.53
2023-05-04T15:52:54.721Z,17.41
2023-05-04T15:57:51.796Z,17.14
2023-05-04T16:02:48.747Z,17.51
2023-05-04T16:07:46.486Z,17.51
2023-05-04T16:12:46.733Z,17.52
2023-05-04T16:17:43.605Z,17.65
2023-05-04T16:22:40.757Z,17.52
2023-05-04T16:27:38.270Z,17.94
2023-05-04T16:32:35.185Z,18.04
2023-05-04T16:37:34.507Z,18.11
2023-05-04T16:42:33.957Z,18.14
2023-05-04T16:47:31.855Z,18.26
2023-05-04T16:52:29.158Z,18.63
2023-05-04T16:57:28.360Z,18.39
2023-05-04T17:02:41.721Z,18.45
2023-05-04T17:07:42.667Z,18.39
2023-05-04T17:12:42.659Z,18.14
2023-05-04T17:17:40.991Z,18.85
2023-05-04T17:22:38.001Z,18.91
2023-05-04T17:27:34.962Z,19.02
2023-05-04T17:32:31.951Z,19.08
2023-05-04T17:37:30.064Z,18.94
2023-05-04T17:42:30.414Z,19.34
2023-05-04T17:47:27.332Z,19.01
2023-05-04T17:52:24.339Z,19.25
2023-05-04T17:57:21.872Z,19.03
2023-05-04T18:02:20.019Z,18.69
2023-05-04T18:07:17.049Z,18.79
2023-05-04T18:12:14.012Z,18.51
2023-05-04T18:17:11.807Z,18.53
2023-05-04T18:22:08.659Z,18.58
2023-05-04T18:27:05.468Z,18.60
2023-05-04T18:32:07.177Z,18.31
2023-05-04T18:37:04.850Z,18.31
2023-05-04T18:42:01.779Z,18.31
2023-05-04T18:46:59.145Z,18.02
2023-05-04T18:51:56.049Z,18.08
2023-05-04T18:56:53.665Z,18.14
2023-05-04T19:01:51.014Z,18.14
2023-05-04T19:06:50.980Z,18.08
2023-05-04T19:11:47.830Z,17.95
2023-05-04T19:16:45.506Z,17.96
2023-05-04T19:21:43.327Z,18.04
2023-05-04T19:26:40.545Z,18.06
2023-05-04T19:31:37.466Z,18.01
2023-05-04T19:36:35.071Z,18.04
2023-05-04T19:41:32.093Z,18.10
2023-05-04T19:46:30.654Z,17.86
2023-05-04T19:51:28.631Z,18.02
2023-05-04T19:56:26.263Z,17.35
2023-05-04T20:01:23.379Z,17.76
2023-05-04T20:06:21.441Z,17.51
2023-05-04T20:11:18.376Z,17.55
2023-05-04T20:16:16.086Z,17.41
2023-05-04T20:21:13.680Z,17.64
2023-05-04T20:26:10.490Z,17.64
2023-05-04T20:31:08.482Z,17.84
2023-05-04T20:36:06.622Z,17.71
2023-05-04T20:41:07.043Z,17.90
2023-05-04T20:46:04.112Z,17.66
2023-05-04T20:51:14.065Z,17.65
2023-05-04T20:56:14.066Z,17.93
2023-05-04T21:01:10.888Z,18.04
2023-05-04T21:06:07.793Z,17.96
2023-05-04T21:11:04.890Z,17.53
2023-05-04T21:16:02.314Z,18.02
2023-05-04T21:20:59.071Z,18.04
2023-05-04T21:26:02.677Z,18.02
2023-05-04T21:30:59.730Z,17.81
2023-05-04T21:35:57.283Z,17.71
2023-05-04T21:40:54.038Z,17.73
2023-05-04T21:45:50.952Z,17.62
2023-05-04T21:50:48.583Z,17.90
2023-05-04T21:55:46.051Z,17.88
2023-05-04T22:00:42.944Z,17.61
2023-05-04T22:05:39.930Z,17.51
2023-05-04T22:10:37.057Z,17.72
2023-05-04T22:15:42.082Z,17.05
2023-05-04T22:20:43.415Z,17.24
2023-05-04T22:25:40.526Z,17.52
2023-05-04T22:30:38.050Z,17.08
2023-05-04T22:35:34.784Z,17.30
2023-05-04T22:40:31.644Z,17.41
2023-05-04T22:45:28.505Z,17.29
2023-05-04T22:50:27.087Z,17.33
2023-05-04T22:55:24.167Z,17.02
2023-05-04T23:00:21.301Z,17.04
2023-05-04T23:05:18.315Z,17.06
2023-05-04T23:10:15.995Z,16.87
2023-05-04T23:15:13.565Z,17.06
2023-05-04T23:20:11.347Z,16.68
2023-05-04T23:25:08.731Z,16.71
2023-05-04T23:30:07.914Z,16.61
2023-05-04T23:35:05.679Z,16.67
2023-05-04T23:40:02.499Z,16.49
2023-05-04T23:44:59.273Z,16.79
2023-05-04T23:49:57.044Z,16.45
2023-05-04T23:54:53.977Z,16.63
2023-05-04T23:59:52.184Z,16.82
